createdAt,value
2019-02-02T00:00:44.061Z,16.70
2019-02-02T00:03:13.375Z,16.03
2019-02-02T00:05:42.609Z,17.10
2019-02-02T00:08:11.997Z,15.93
2019-02-02T00:10:41.250Z,16.40
2019-02-02T00:13:10.515Z,16.50
2019-02-02T00:15:39.821Z,14.83
2019-02-02T00:18:09.305Z,15.17
2019-02-02T00:20:38.639Z,15.40
2019-02-02T00:23:07.913Z,16.00
2019-02-02T00:25:37.136Z,17.20
2019-02-02T00:28:06.573Z,16.07
2019-02-02T00:30:35.813Z,15.83
2019-02-02T00:33:05.668Z,16.07
2019-02-02T00:35:34.896Z,16.03
2019-02-02T00:38:04.423Z,15.93
2019-02-02T00:40:33.709Z,15.93
2019-02-02T00:43:02.983Z,15.27
2019-02-02T00:45:32.678Z,14.27
2019-02-02T00:48:01.950Z,15.23
2019-02-02T00:50:31.215Z,15.33
2019-02-02T00:53:01.190Z,16.33
2019-02-02T00:55:31.604Z,19.67
2019-02-02T00:58:00.856Z,18.93
2019-02-02T01:00:30.310Z,17.37
2019-02-02T01:02:59.551Z,18.50
2019-02-02T01:05:28.959Z,18.80
2019-02-02T01:07:58.194Z,18.73
2019-02-02T01:10:30.500Z,17.27
2019-02-02T01:13:00.007Z,16.10
2019-02-02T01:15:29.566Z,17.77
2019-02-02T01:17:58.998Z,17.10
2019-02-02T01:20:28.868Z,18.30
2019-02-02T01:22:58.124Z,15.00
2019-02-02T01:25:27.392Z,16.17
2019-02-02T01:28:04.879Z,16.00
2019-02-02T01:30:28.038Z,18.03
2019-02-02T01:32:57.362Z,15.40
2019-02-02T01:35:26.596Z,16.57
2019-02-02T01:37:55.849Z,16.73
2019-02-02T01:40:26.429Z,16.23
2019-02-02T01:42:56.454Z,16.50
2019-02-02T01:45:27.151Z,17.23
2019-02-02T01:47:56.921Z,17.13
2019-02-02T01:50:27.487Z,17.33
2019-02-02T01:52:57.194Z,18.47
2019-02-02T01:55:26.618Z,17.87
2019-02-02T01:57:55.937Z,17.80
2019-02-02T02:00:30.616Z,18.07
2019-02-02T02:02:59.951Z,16.57
2019-02-02T02:05:29.378Z,17.03
2019-02-02T02:07:59.188Z,17.67
2019-02-02T02:10:28.425Z,18.07
2019-02-02T02:12:57.666Z,16.50
2019-02-02T02:15:26.999Z,17.77
2019-02-02T02:17:56.324Z,16.17
2019-02-02T02:20:25.573Z,16.73
2019-02-02T02:22:54.838Z,17.73
2019-02-02T02:25:24.105Z,17.17
2019-02-02T02:27:53.334Z,16.90
2019-02-02T02:30:24.014Z,17.80
2019-02-02T02:32:53.620Z,16.13
2019-02-02T02:35:23.064Z,16.47
2019-02-02T02:37:52.374Z,15.73
2019-02-02T02:40:23.256Z,16.23
2019-02-02T02:42:53.131Z,17.60
2019-02-02T02:45:22.511Z,16.80
2019-02-02T02:47:51.905Z,15.60
2019-02-02T02:50:22.397Z,16.87
2019-02-02T02:52:51.874Z,16.53
2019-02-02T02:55:21.108Z,16.77
2019-02-02T02:57:50.359Z,17.30
2019-02-02T03:00:21.526Z,18.33
2019-02-02T03:02:51.209Z,14.50
2019-02-02T03:05:21.298Z,15.63
2019-02-02T03:07:52.090Z,15.28
2019-02-02T03:10:23.483Z,15.93
2019-02-02T03:12:53.653Z,17.83
2019-02-02T03:15:23.209Z,16.80
2019-02-02T03:17:52.764Z,18.37
2019-02-02T03:20:22.267Z,17.17
2019-02-02T03:22:51.537Z,16.30
2019-02-02T03:25:25.632Z,15.77
2019-02-02T03:27:55.077Z,17.13
2019-02-02T03:30:24.319Z,17.50
2019-02-02T03:32:53.628Z,16.40
2019-02-02T03:35:25.750Z,17.77
2019-02-02T03:37:55.371Z,18.47
2019-02-02T03:40:24.985Z,18.63
2019-02-02T03:42:54.313Z,17.90
2019-02-02T03:45:24.506Z,15.93
2019-02-02T03:47:55.263Z,18.40
2019-02-02T03:50:24.855Z,18.27
2019-02-02T03:52:54.097Z,17.57
2019-02-02T03:55:23.488Z,18.60
2019-02-02T03:57:53.306Z,17.87
2019-02-02T04:00:22.988Z,18.03
2019-02-02T04:02:52.362Z,18.77
2019-02-02T04:05:26.741Z,18.70
2019-02-02T04:07:56.001Z,18.37
2019-02-02T04:10:25.260Z,17.17
2019-02-02T04:12:54.571Z,17.77
2019-02-02T04:15:23.870Z,17.57
2019-02-02T04:17:53.383Z,18.77
2019-02-02T04:20:23.466Z,17.33
2019-02-02T04:22:52.973Z,18.53
2019-02-02T04:25:23.055Z,18.53
2019-02-02T04:27:52.658Z,20.07
2019-02-02T04:30:26.671Z,18.00
2019-02-02T04:32:56.080Z,19.67
2019-02-02T04:35:25.511Z,17.73
2019-02-02T04:37:54.801Z,18.27
2019-02-02T04:40:24.359Z,19.50
2019-02-02T04:42:53.587Z,19.00
2019-02-02T04:45:22.894Z,18.47
2019-02-02T04:47:52.128Z,19.73
2019-02-02T04:50:21.949Z,18.37
2019-02-02T04:52:51.262Z,18.73
2019-02-02T04:55:20.566Z,19.17
2019-02-02T04:57:49.871Z,20.37
2019-02-02T05:00:28.486Z,19.37
2019-02-02T05:02:57.734Z,20.33
2019-02-02T05:05:27.007Z,19.37
2019-02-02T05:07:56.256Z,17.93
2019-02-02T05:10:44.850Z,18.37
2019-02-02T05:13:14.096Z,18.37
2019-02-02T05:15:43.448Z,17.83
2019-02-02T05:18:12.743Z,19.53
2019-02-02T05:20:42.004Z,17.17
2019-02-02T05:23:11.254Z,17.93
2019-02-02T05:25:41.463Z,20.07
2019-02-02T05:28:10.723Z,19.43
2019-02-02T05:30:39.976Z,20.27
2019-02-02T05:33:09.214Z,18.60
2019-02-02T05:35:38.466Z,17.67
2019-02-02T05:38:07.705Z,20.57
2019-02-02T05:40:36.932Z,19.83
2019-02-02T05:43:06.252Z,18.03
2019-02-02T05:45:35.492Z,18.50
2019-02-02T05:48:04.975Z,18.03
2019-02-02T05:50:34.236Z,18.37
2019-02-02T05:53:03.482Z,18.87
2019-02-02T05:55:32.798Z,17.77
2019-02-02T05:58:02.036Z,19.67
2019-02-02T06:00:33.395Z,18.70
2019-02-02T06:03:02.714Z,19.90
2019-02-02T06:05:32.044Z,17.50
2019-02-02T06:08:01.276Z,18.40
2019-02-02T06:10:30.709Z,18.07
2019-02-02T06:13:00.030Z,19.00
2019-02-02T06:15:29.388Z,17.10
2019-02-02T06:17:58.895Z,17.17
2019-02-02T06:20:28.257Z,17.67
2019-02-02T06:22:57.581Z,18.93
2019-02-02T06:25:26.844Z,16.60
2019-02-02T06:27:56.151Z,18.77
2019-02-02T06:30:26.049Z,17.43
2019-02-02T06:32:55.358Z,17.27
2019-02-02T06:35:24.610Z,16.37
2019-02-02T06:37:53.872Z,17.23
2019-02-02T06:40:23.191Z,15.57
2019-02-02T06:42:52.542Z,17.10
2019-02-02T06:45:27.655Z,16.90
2019-02-02T06:47:57.227Z,20.43
2019-02-02T06:50:26.649Z,20.00
2019-02-02T06:52:56.235Z,19.05
2019-02-02T06:55:25.485Z,18.83
2019-02-02T06:57:54.806Z,19.07
2019-02-02T07:00:28.461Z,17.40
2019-02-02T07:02:57.699Z,18.57
2019-02-02T07:05:27.297Z,19.70
2019-02-02T07:07:56.630Z,19.50
2019-02-02T07:10:28.244Z,18.83
2019-02-02T07:12:57.647Z,19.50
2019-02-02T07:15:29.379Z,18.97
2019-02-02T07:17:58.728Z,19.05
2019-02-02T07:20:28.054Z,16.30
2019-02-02T07:22:57.451Z,18.03
2019-02-02T07:25:26.787Z,17.67
2019-02-02T07:27:56.191Z,19.33
2019-02-02T07:30:29.093Z,18.43
2019-02-02T07:32:56.935Z,19.40
2019-02-02T07:35:26.322Z,19.00
2019-02-02T07:37:55.561Z,17.57
2019-02-02T07:40:24.811Z,16.73
2019-02-02T07:42:54.055Z,17.43
2019-02-02T07:45:29.042Z,19.97
2019-02-02T07:47:58.277Z,18.93
2019-02-02T07:50:27.761Z,18.40
2019-02-02T07:52:57.062Z,18.93
2019-02-02T07:55:26.300Z,18.13
2019-02-02T07:57:55.547Z,18.05
2019-02-02T08:00:40.383Z,19.07
2019-02-02T08:03:01.405Z,17.53
2019-02-02T08:05:30.888Z,19.53
2019-02-02T08:08:00.254Z,16.60
2019-02-02T08:10:29.651Z,16.30
2019-02-02T08:12:58.964Z,16.00
2019-02-02T08:15:33.429Z,17.43
2019-02-02T08:18:02.751Z,19.33
2019-02-02T08:20:31.980Z,19.00
2019-02-02T08:23:01.260Z,19.07
2019-02-02T08:25:30.584Z,18.23
2019-02-02T08:27:59.861Z,17.97
2019-02-02T08:30:31.448Z,18.90
2019-02-02T08:33:00.850Z,18.33
2019-02-02T08:35:30.169Z,17.77
2019-02-02T08:37:59.494Z,16.77
2019-02-02T08:40:28.740Z,16.60
2019-02-02T08:42:58.004Z,17.03
2019-02-02T08:45:27.233Z,18.30
2019-02-02T08:47:56.470Z,18.00
2019-02-02T08:50:31.647Z,16.53
2019-02-02T08:53:01.010Z,17.33
2019-02-02T08:55:30.686Z,18.13
2019-02-02T08:58:00.031Z,15.40
2019-02-02T09:00:29.452Z,17.40
2019-02-02T09:02:58.901Z,16.40
2019-02-02T09:05:28.282Z,17.40
2019-02-02T09:07:57.542Z,18.17
2019-02-02T09:10:28.473Z,16.57
2019-02-02T09:12:58.341Z,16.03
2019-02-02T09:15:27.819Z,15.33
2019-02-02T09:17:57.072Z,16.07
2019-02-02T09:20:26.638Z,17.53
2019-02-02T09:23:04.203Z,17.03
2019-02-02T09:25:26.958Z,14.17
2019-02-02T09:27:56.218Z,16.70
2019-02-02T09:30:30.786Z,16.27
2019-02-02T09:33:00.169Z,15.53
2019-02-02T09:35:29.461Z,16.33
2019-02-02T09:37:58.796Z,14.93
2019-02-02T09:40:28.166Z,16.30
2019-02-02T09:42:57.432Z,16.83
2019-02-02T09:45:26.693Z,16.33
2019-02-02T09:47:56.066Z,16.93
2019-02-02T09:50:26.749Z,15.40
2019-02-02T09:52:56.250Z,17.30
2019-02-02T09:55:26.724Z,17.30
2019-02-02T09:58:05.168Z,18.40
2019-02-02T10:00:34.542Z,15.97
2019-02-02T10:03:04.654Z,16.23
2019-02-02T10:05:33.898Z,15.57
2019-02-02T10:08:03.175Z,19.00
2019-02-02T10:10:34.068Z,17.00
2019-02-02T10:13:03.542Z,15.83
2019-02-02T10:15:32.765Z,16.07
2019-02-02T10:18:02.032Z,16.77
2019-02-02T10:20:32.162Z,16.70
2019-02-02T10:23:01.706Z,15.27
2019-02-02T10:25:31.715Z,17.67
2019-02-02T10:28:01.066Z,18.80
2019-02-02T10:30:32.557Z,18.90
2019-02-02T10:33:01.860Z,19.27
2019-02-02T10:35:31.356Z,19.83
2019-02-02T10:38:00.663Z,19.27
2019-02-02T10:40:30.271Z,18.17
2019-02-02T10:42:59.826Z,16.90
2019-02-02T10:45:29.139Z,20.93
2019-02-02T10:47:58.662Z,18.17
2019-02-02T10:50:27.977Z,16.77
2019-02-02T10:52:57.291Z,21.20
2019-02-02T10:55:26.602Z,21.87
2019-02-02T10:57:55.923Z,20.70
2019-02-02T11:00:27.691Z,19.17
2019-02-02T11:02:57.289Z,15.10
2019-02-02T11:05:26.623Z,16.43
2019-02-02T11:07:56.143Z,15.20
2019-02-02T11:10:33.429Z,16.77
2019-02-02T11:13:02.853Z,16.53
2019-02-02T11:15:32.195Z,14.00
2019-02-02T11:18:01.708Z,13.00
2019-02-02T11:20:33.022Z,12.33
2019-02-02T11:23:02.532Z,13.80
2019-02-02T11:25:32.116Z,13.43
2019-02-02T11:28:01.625Z,16.13
2019-02-02T11:30:31.637Z,14.13
2019-02-02T11:33:01.119Z,17.20
2019-02-02T11:35:30.356Z,15.87
2019-02-02T11:37:59.598Z,16.00
2019-02-02T11:40:33.963Z,18.13
2019-02-02T11:43:03.837Z,14.73
2019-02-02T11:45:33.125Z,13.73
2019-02-02T11:48:02.452Z,12.97
2019-02-02T11:50:31.702Z,12.40
2019-02-02T11:53:00.990Z,13.80
2019-02-02T11:55:30.297Z,11.47
2019-02-02T11:57:59.545Z,12.33
2019-02-02T12:00:36.696Z,11.67
2019-02-02T12:03:06.188Z,13.40
2019-02-02T12:05:35.573Z,10.23
2019-02-02T12:08:05.548Z,11.90
2019-02-02T12:10:35.646Z,11.30
2019-02-02T12:13:05.332Z,12.83
2019-02-02T12:15:34.784Z,12.20
2019-02-02T12:18:04.519Z,12.17
2019-02-02T12:20:33.893Z,13.80
2019-02-02T12:23:03.379Z,16.03
2019-02-02T12:25:32.653Z,18.93
2019-02-02T12:28:01.896Z,18.13
2019-02-02T12:30:33.755Z,16.20
2019-02-02T12:33:03.804Z,17.97
2019-02-02T12:35:33.233Z,15.47
2019-02-02T12:38:02.786Z,16.60
2019-02-02T12:40:32.117Z,18.90
2019-02-02T12:43:01.370Z,17.93
2019-02-02T12:45:37.120Z,15.50
2019-02-02T12:48:07.013Z,14.43
2019-02-02T12:50:36.405Z,12.33
2019-02-02T12:53:05.868Z,13.90
2019-02-02T12:55:35.183Z,14.50
2019-02-02T12:58:06.176Z,15.10
2019-02-02T13:00:35.573Z,13.37
2019-02-02T13:03:05.622Z,12.00
2019-02-02T13:05:34.934Z,12.30
2019-02-02T13:08:05.696Z,12.33
2019-02-02T13:10:35.204Z,16.47
2019-02-02T13:13:04.720Z,12.83
2019-02-02T13:15:34.043Z,13.10
2019-02-02T13:18:03.362Z,13.73
2019-02-02T13:20:32.603Z,12.00
2019-02-02T13:23:01.854Z,10.77
2019-02-02T13:25:31.110Z,11.80
2019-02-02T13:28:00.351Z,9.87
2019-02-02T13:30:32.492Z,9.93
2019-02-02T13:33:01.754Z,8.70
2019-02-02T13:35:33.601Z,10.90
2019-02-02T13:38:02.916Z,9.03
2019-02-02T13:40:32.327Z,8.93
2019-02-02T13:43:01.617Z,9.63
2019-02-02T13:45:30.943Z,13.20
2019-02-02T13:48:12.333Z,12.63
2019-02-02T13:50:42.198Z,10.37
2019-02-02T13:53:11.563Z,10.17
2019-02-02T13:55:40.805Z,10.13
2019-02-02T13:58:10.179Z,12.77
2019-02-02T14:00:39.450Z,11.53
2019-02-02T14:03:08.701Z,15.70
2019-02-02T14:05:38.026Z,12.40
2019-02-02T14:08:07.354Z,11.13
2019-02-02T14:10:36.762Z,11.03
2019-02-02T14:13:06.194Z,12.70
2019-02-02T14:15:35.534Z,11.73
2019-02-02T14:18:05.233Z,10.77
2019-02-02T14:20:34.469Z,12.70
2019-02-02T14:23:03.798Z,9.90
2019-02-02T14:25:33.087Z,9.30
2019-02-02T14:28:02.452Z,8.67
2019-02-02T14:30:31.842Z,11.83
2019-02-02T14:33:12.983Z,9.60
2019-02-02T14:35:32.115Z,9.30
2019-02-02T14:38:01.346Z,8.50
2019-02-02T14:40:30.686Z,9.70
2019-02-02T14:42:59.914Z,7.63
2019-02-02T14:45:29.314Z,11.60
2019-02-02T14:47:58.548Z,10.55
2019-02-02T14:50:27.985Z,10.63
2019-02-02T14:52:57.224Z,9.07
2019-02-02T14:55:28.975Z,10.00
2019-02-02T14:57:58.212Z,9.17
2019-02-02T15:00:29.195Z,8.87
2019-02-02T15:02:58.722Z,7.80
2019-02-02T15:05:28.044Z,7.30
2019-02-02T15:07:57.280Z,6.87
2019-02-02T15:10:26.606Z,7.20
2019-02-02T15:12:55.854Z,7.00
2019-02-02T15:15:25.157Z,6.07
2019-02-02T15:17:54.473Z,6.40
2019-02-02T15:20:29.092Z,5.90
2019-02-02T15:22:58.418Z,4.60
2019-02-02T15:25:27.842Z,4.83
2019-02-02T15:27:57.220Z,4.50
2019-02-02T15:30:31.934Z,5.07
2019-02-02T15:33:01.270Z,4.87
2019-02-02T15:35:30.675Z,4.93
2019-02-02T15:37:59.998Z,5.33
2019-02-02T15:40:31.443Z,5.57
2019-02-02T15:43:00.545Z,4.20
2019-02-02T15:45:31.521Z,5.20
2019-02-02T15:48:00.900Z,5.53
2019-02-02T15:50:30.275Z,5.63
2019-02-02T15:52:59.616Z,5.93
2019-02-02T15:55:28.922Z,6.53
2019-02-02T15:57:58.174Z,6.33
2019-02-02T16:00:30.102Z,6.57
2019-02-02T16:02:59.581Z,5.73
2019-02-02T16:05:29.353Z,6.20
2019-02-02T16:08:00.607Z,6.10
2019-02-02T16:10:31.994Z,7.00
2019-02-02T16:13:01.772Z,6.73
2019-02-02T16:15:34.136Z,9.03
2019-02-02T16:18:02.083Z,7.07
2019-02-02T16:20:41.895Z,15.50
2019-02-02T16:23:10.341Z,14.73
2019-02-02T16:25:39.592Z,22.60
2019-02-02T16:28:08.993Z,20.43
2019-02-02T16:30:38.391Z,17.50
2019-02-02T16:33:07.862Z,15.93
2019-02-02T16:35:37.211Z,13.60
2019-02-02T16:38:07.109Z,21.67
2019-02-02T16:40:36.381Z,24.47
2019-02-02T16:43:05.963Z,23.40
2019-02-02T16:45:35.635Z,20.03
2019-02-02T16:48:05.722Z,18.23
2019-02-02T16:50:35.031Z,19.10
2019-02-02T16:53:04.484Z,17.17
2019-02-02T16:55:33.787Z,17.53
2019-02-02T16:58:03.049Z,15.90
2019-02-02T17:00:33.942Z,15.27
2019-02-02T17:03:03.285Z,16.00
2019-02-02T17:05:32.603Z,16.23
2019-02-02T17:08:02.019Z,12.97
2019-02-02T17:10:33.606Z,14.83
2019-02-02T17:13:02.923Z,15.83
2019-02-02T17:15:32.250Z,11.93
2019-02-02T17:18:01.528Z,11.90
2019-02-02T17:20:33.513Z,13.07
2019-02-02T17:23:02.749Z,13.87
2019-02-02T17:25:32.182Z,12.50
2019-02-02T17:28:01.447Z,12.77
2019-02-02T17:30:30.694Z,11.77
2019-02-02T17:33:02.864Z,11.80
2019-02-02T17:35:32.202Z,11.87
2019-02-02T17:38:01.578Z,11.17
2019-02-02T17:40:31.308Z,10.97
2019-02-02T17:43:00.665Z,10.53
2019-02-02T17:45:30.055Z,11.17
2019-02-02T17:47:59.292Z,11.40
2019-02-02T17:50:29.839Z,12.83
2019-02-02T17:52:59.229Z,12.33
2019-02-02T17:55:28.588Z,12.23
2019-02-02T17:57:57.864Z,11.43
2019-02-02T18:00:49.276Z,10.37
2019-02-02T18:03:18.582Z,10.33
2019-02-02T18:05:47.824Z,9.60
2019-02-02T18:08:17.072Z,10.83
2019-02-02T18:10:46.340Z,12.67
2019-02-02T18:13:15.576Z,10.53
2019-02-02T18:15:44.858Z,11.87
2019-02-02T18:18:14.108Z,11.97
2019-02-02T18:20:43.345Z,11.00
2019-02-02T18:23:12.593Z,10.60
2019-02-02T18:25:42.460Z,10.98
2019-02-02T18:28:11.716Z,10.60
2019-02-02T18:30:40.964Z,11.70
2019-02-02T18:33:10.206Z,11.87
2019-02-02T18:35:39.437Z,10.93
2019-02-02T18:38:08.786Z,11.37
2019-02-02T18:40:39.984Z,11.13
2019-02-02T18:43:08.963Z,10.70
2019-02-02T18:45:38.386Z,10.13
2019-02-02T18:48:07.828Z,9.70
2019-02-02T18:50:37.121Z,10.37
2019-02-02T18:53:06.396Z,11.07
2019-02-02T18:55:41.599Z,11.83
2019-02-02T18:58:10.919Z,12.70
2019-02-02T19:00:40.166Z,11.67
2019-02-02T19:03:09.573Z,12.80
2019-02-02T19:05:38.811Z,13.57
2019-02-02T19:08:08.052Z,12.97
2019-02-02T19:10:40.425Z,13.27
2019-02-02T19:13:10.098Z,12.53
2019-02-02T19:15:39.393Z,13.77
2019-02-02T19:18:08.720Z,13.20
2019-02-02T19:20:38.003Z,12.83
2019-02-02T19:23:07.326Z,13.57
2019-02-02T19:25:36.582Z,13.37
2019-02-02T19:28:06.886Z,13.90
2019-02-02T19:30:36.677Z,12.23
2019-02-02T19:33:06.452Z,12.63
2019-02-02T19:35:35.727Z,13.13
2019-02-02T19:38:05.301Z,13.17
2019-02-02T19:40:34.522Z,12.97
2019-02-02T19:43:04.136Z,14.70
2019-02-02T19:45:33.454Z,14.97
2019-02-02T19:48:02.697Z,17.00
2019-02-02T19:50:31.916Z,16.33
2019-02-02T19:53:01.279Z,20.47
2019-02-02T19:55:30.724Z,21.20
2019-02-02T19:58:00.038Z,21.50
2019-02-02T20:00:33.914Z,19.50
2019-02-02T20:03:03.902Z,21.23
2019-02-02T20:05:33.150Z,20.53
2019-02-02T20:08:02.405Z,20.03
2019-02-02T20:10:31.655Z,21.20
2019-02-02T20:13:00.917Z,19.60
2019-02-02T20:15:30.232Z,17.10
2019-02-02T20:18:09.546Z,15.87
2019-02-02T20:20:30.514Z,15.23
2019-02-02T20:22:59.751Z,16.23
2019-02-02T20:25:29.015Z,15.73
2019-02-02T20:27:58.281Z,16.45
2019-02-02T20:30:31.836Z,16.53
2019-02-02T20:33:01.117Z,16.20
2019-02-02T20:35:40.183Z,13.93
2019-02-02T20:38:01.314Z,16.33
2019-02-02T20:40:30.563Z,13.97
2019-02-02T20:42:59.803Z,13.97
2019-02-02T20:45:34.849Z,14.67
2019-02-02T20:48:04.786Z,12.80
2019-02-02T20:50:34.026Z,12.83
2019-02-02T20:53:03.645Z,12.00
2019-02-02T20:55:36.124Z,11.00
2019-02-02T20:58:06.247Z,12.33
2019-02-02T21:00:35.573Z,12.10
2019-02-02T21:03:05.153Z,13.80
2019-02-02T21:05:34.486Z,11.97
2019-02-02T21:08:04.458Z,11.53
2019-02-02T21:10:33.803Z,9.70
2019-02-02T21:13:03.037Z,12.40
2019-02-02T21:15:32.275Z,12.13
2019-02-02T21:18:01.536Z,12.15
2019-02-02T21:20:31.171Z,11.83
2019-02-02T21:23:00.557Z,11.50
2019-02-02T21:25:29.894Z,12.03
2019-02-02T21:27:59.148Z,10.87
2019-02-02T21:30:31.001Z,9.63
2019-02-02T21:33:00.327Z,9.37
2019-02-02T21:35:29.649Z,10.67
2019-02-02T21:37:58.907Z,10.97
2019-02-02T21:40:30.381Z,11.30
2019-02-02T21:42:59.851Z,11.80
2019-02-02T21:45:29.349Z,10.20
2019-02-02T21:47:58.699Z,10.77
2019-02-02T21:50:28.022Z,11.57
2019-02-02T21:52:57.273Z,11.13
2019-02-02T21:55:28.755Z,13.53
2019-02-02T21:57:58.233Z,13.73
2019-02-02T22:00:30.302Z,13.97
2019-02-02T22:02:59.573Z,14.23
2019-02-02T22:05:28.943Z,13.60
2019-02-02T22:07:58.273Z,14.97
2019-02-02T22:10:27.680Z,14.07
2019-02-02T22:12:57.295Z,13.30
2019-02-02T22:15:27.976Z,12.50
2019-02-02T22:17:57.423Z,12.37
2019-02-02T22:20:26.819Z,12.67
2019-02-02T22:22:56.134Z,12.60
2019-02-02T22:25:30.670Z,13.03
2019-02-02T22:28:00.185Z,13.60
2019-02-02T22:30:32.110Z,13.90
2019-02-02T22:33:01.421Z,15.60
2019-02-02T22:35:30.748Z,14.37
2019-02-02T22:38:00.608Z,14.30
2019-02-02T22:40:30.098Z,14.03
2019-02-02T22:42:59.576Z,17.80
2019-02-02T22:45:28.887Z,16.10
2019-02-02T22:47:58.140Z,16.77
2019-02-02T22:50:28.528Z,15.07
2019-02-02T22:52:57.798Z,12.83
2019-02-02T22:55:27.162Z,15.63
2019-02-02T22:57:56.492Z,12.73
2019-02-02T23:00:48.327Z,13.80
2019-02-02T23:03:26.488Z,13.33
2019-02-02T23:06:11.032Z,14.73
2019-02-02T23:09:06.617Z,12.80
2019-02-02T23:11:51.074Z,15.27
2019-02-02T23:14:26.268Z,13.60
2019-02-02T23:16:55.587Z,15.83
2019-02-02T23:19:24.831Z,14.13
2019-02-02T23:21:54.075Z,13.73
2019-02-02T23:24:23.330Z,14.57
2019-02-02T23:26:52.970Z,14.03
2019-02-02T23:29:22.378Z,15.10
2019-02-02T23:31:51.674Z,16.63
2019-02-02T23:34:20.921Z,14.87
2019-02-02T23:36:54.544Z,14.87
2019-02-02T23:39:21.223Z,16.30
2019-02-02T23:41:50.548Z,15.03
2019-02-02T23:44:19.805Z,15.23
2019-02-02T23:46:49.440Z,14.83
2019-02-02T23:49:18.850Z,17.00
2019-02-02T23:51:48.109Z,17.77
2019-02-02T23:54:17.390Z,17.40
2019-02-02T23:56:49.353Z,19.37
2019-02-02T23:59:18.606Z,23.43
